M I D A S
Marine Information and Data Acquisition System
Tripno 1130 of the Zeeleeuw from 2006-07-03 08:53:43 to 2006-07-03 12:58:50
Back to CruiseResearch ActivitiesStationsMapUnderway DataData graphs

EquipmentUnitsComment
TimeDGPSUTC
LatitudeDGPSDM.mWGS84
LongitudeDGPSDM.mWGS84
HeadingGyrodeg 
SOGDGPSknotsSpeed over ground
COGDGPSdegCourse over ground
DepthEcho soundermeters200 kHz
Missing or incorrect values are displayed as -999
Navigation data collected by the RV Zeeleeuw from 2006-07-03 08:50:50 to 2006-07-03 13:09:31
Time Latitude Longitude Heading SOG COG Depth
2006-07-03 08:51:55 51°13.599 2°56.1 115.4 -999 183 6.1
2006-07-03 08:52:56 51°13.607 2°56.066 113.2 3.2 294 -999
2006-07-03 08:53:56 51°13.638 2°55.954 119.5 5.3 296 -999
2006-07-03 08:54:55 51°13.681 2°55.829 115.9 5.1 296 -999
2006-07-03 08:55:55 51°13.7 2°55.755 86.3 0.7 317 12.6
2006-07-03 08:56:55 51°13.703 2°55.751 36.3 1.2 225 13
2006-07-03 08:57:56 51°13.705 2°55.734 350.7 2.4 341 -999
2006-07-03 08:58:54 51°13.793 2°55.661 334.7 8.1 331 10.8
2006-07-03 08:59:55 51°13.916 2°55.565 339.1 7.8 336 11
2006-07-03 09:00:54 51°14.03 2°55.483 339.5 7.5 336 10.7
2006-07-03 09:01:56 51°14.159 2°55.389 337.4 9.1 333 10.6
2006-07-03 09:02:55 51°14.283 2°55.235 317.3 9.9 313 10.5
2006-07-03 09:03:55 51°14.384 2°55.007 309.1 11.2 305 10.5
2006-07-03 09:04:55 51°14.51 2°54.748 321.1 12.7 316 10.1
2006-07-03 09:05:55 51°14.697 2°54.614 355.4 12.4 349 9.4
2006-07-03 09:06:55 51°14.901 2°54.575 0.5 12.4 354 9
2006-07-03 09:07:55 51°15.104 2°54.539 0.2 12.3 354 8.4
2006-07-03 09:08:55 51°15.309 2°54.504 359.2 12.4 353 8.8
2006-07-03 09:09:55 51°15.512 2°54.459 359.2 12.3 353 9.4
2006-07-03 09:10:54 51°15.712 2°54.416 358.7 12.4 352 10.1
2006-07-03 09:11:55 51°15.92 2°54.367 357.7 12.4 351 10.6
2006-07-03 09:12:55 51°16.053 2°54.35 16.5 5.3 8 11.1
2006-07-03 09:13:55 51°16.11 2°54.382 37.7 2.8 26 11.2
2006-07-03 09:14:54 51°16.141 2°54.412 48.9 1.8 36 11.3
2006-07-03 09:15:55 51°16.16 2°54.435 52.2 1.2 38 11.3
2006-07-03 09:16:55 51°16.173 2°54.45 53.7 0.8 34 11.3
2006-07-03 09:17:55 51°16.183 2°54.459 55.9 0.5 31 11.3
2006-07-03 09:18:54 51°16.189 2°54.464 60.2 0.3 24 11.3
2006-07-03 09:19:54 51°16.192 2°54.465 65.8 0.2 352 11.3
2006-07-03 09:20:55 51°16.193 2°54.464 71.6 0.1 289 11.2
2006-07-03 09:21:55 51°16.192 2°54.46 79 0.2 245 11.3
2006-07-03 09:22:54 51°16.196 2°54.474 59.1 1.3 48 11.2
2006-07-03 09:23:55 51°16.23 2°54.484 3 2.7 349 11.2
2006-07-03 09:24:55 51°16.278 2°54.432 331.6 4 321 11.2
2006-07-03 09:25:55 51°16.334 2°54.355 325.8 4.8 317 11.1
2006-07-03 09:26:54 51°16.387 2°54.255 312.9 5.4 305 11.3
2006-07-03 09:27:55 51°16.435 2°54.108 298.2 6.7 292 11.3
2006-07-03 09:28:54 51°16.474 2°53.961 298.2 5.1 290 11.4
2006-07-03 09:29:55 51°16.483 2°53.893 288.8 0.7 245 11.5
2006-07-03 09:30:55 51°16.478 2°53.874 279 0.8 250 5.3
2006-07-03 09:31:54 51°16.472 2°53.853 274 0.9 247 11.5
2006-07-03 09:32:54 51°16.466 2°53.831 270.4 1 245 11.5
2006-07-03 09:33:55 51°16.458 2°53.806 269.8 1 244 11.5
2006-07-03 09:34:55 51°16.451 2°53.781 272.5 1.1 247 11.5
2006-07-03 09:35:55 51°16.444 2°53.754 278.2 1.1 246 11.5
2006-07-03 09:36:55 51°16.437 2°53.727 285.2 1.1 250 11.5
2006-07-03 09:37:55 51°16.431 2°53.7 292.3 1.1 249 11.5
2006-07-03 09:38:55 51°16.425 2°53.673 298.6 1.1 249 11.5
2006-07-03 09:39:55 51°16.418 2°53.648 304 1.1 250 11.6
2006-07-03 09:40:54 51°16.413 2°53.622 309.3 1 249 11.5
2006-07-03 09:41:55 51°16.406 2°53.595 313.7 1.1 248 11.5
2006-07-03 09:42:54 51°16.401 2°53.571 318.1 1 251 11.6
2006-07-03 09:43:55 51°16.395 2°53.544 321.7 1.1 248 11.6
2006-07-03 09:44:55 51°16.389 2°53.518 324.5 1 251 11.5
2006-07-03 09:45:54 51°16.383 2°53.491 326.9 1.1 251 11.5
2006-07-03 09:46:54 51°16.376 2°53.466 329.4 1.1 250 11.6
2006-07-03 09:47:54 51°16.37 2°53.438 330.2 1.1 250 11.6
2006-07-03 09:48:54 51°16.365 2°53.41 331.3 1.1 250 11.6
2006-07-03 09:49:55 51°16.358 2°53.384 333.1 1.1 250 11.6
2006-07-03 09:50:54 51°16.352 2°53.355 332.9 1.1 250 11.6
2006-07-03 09:51:55 51°16.346 2°53.327 332.4 1.1 251 11.6
2006-07-03 09:52:55 51°16.339 2°53.297 332.8 1.2 250 11.6
2006-07-03 09:53:55 51°16.332 2°53.269 333.3 1.1 250 11.6
2006-07-03 09:54:55 51°16.325 2°53.239 333.4 1.2 249 11.6
2006-07-03 09:55:55 51°16.319 2°53.209 332.8 1.2 249 11.6
2006-07-03 09:56:56 51°16.312 2°53.178 332.4 1.2 250 11.6
2006-07-03 09:57:55 51°16.305 2°53.148 331.2 1.2 248 11.6
2006-07-03 09:58:54 51°16.299 2°53.118 330.8 1.2 250 11.6
2006-07-03 09:59:54 51°16.291 2°53.088 331.6 1.2 249 11.6
2006-07-03 10:00:54 51°16.284 2°53.058 333.3 1.2 250 11.6
2006-07-03 10:01:54 51°16.277 2°53.028 334.8 1.2 252 11.6
2006-07-03 10:02:54 51°16.27 2°52.997 335.8 1.2 251 11.7
2006-07-03 10:03:56 51°16.263 2°52.965 336.5 1.3 249 11.7
2006-07-03 10:04:55 51°16.255 2°52.935 337.4 1.3 249 11.6
2006-07-03 10:05:55 51°16.248 2°52.904 339.1 1.3 249 11.7
2006-07-03 10:06:55 51°16.239 2°52.875 341.8 1.2 245 11.7
2006-07-03 10:07:54 51°16.231 2°52.846 341.1 1.2 245 11.7
2006-07-03 10:08:55 51°16.222 2°52.815 337.3 1.3 245 11.7
2006-07-03 10:09:54 51°16.221 2°52.781 339.7 2.1 308 11.7
2006-07-03 10:10:55 51°16.265 2°52.77 31.2 3.2 19 11.7
2006-07-03 10:11:55 51°16.282 2°52.841 99.3 3.3 109 11.7
2006-07-03 10:12:54 51°16.245 2°52.932 115.4 4.7 125 11.6
2006-07-03 10:13:54 51°16.214 2°53.046 99 4.7 104 11.5
2006-07-03 10:14:56 51°16.203 2°53.177 91.8 4.8 95 11.4
2006-07-03 10:15:54 51°16.195 2°53.302 93.6 5 98 11.3
2006-07-03 10:16:55 51°16.184 2°53.435 90.6 4.9 94 11.2
2006-07-03 10:17:54 51°16.187 2°53.562 82.8 4.8 85 11.1
2006-07-03 10:18:55 51°16.194 2°53.691 83.4 4.7 86 11
2006-07-03 10:19:55 51°16.196 2°53.808 86.3 4.3 91 11
2006-07-03 10:20:54 51°16.196 2°53.916 84.8 4 89 10.8
2006-07-03 10:21:55 51°16.205 2°54.02 74 3.8 75 10.7
2006-07-03 10:22:54 51°16.24 2°54.148 65.5 6.5 63 10.7
2006-07-03 10:23:56 51°16.266 2°54.271 83.2 2 88 10.6
2006-07-03 10:24:55 51°16.261 2°54.274 67.6 0.3 205 10.7
2006-07-03 10:25:54 51°16.256 2°54.266 60.8 0.5 232 10.6
2006-07-03 10:26:55 51°16.249 2°54.251 57.8 0.8 232 10.7
2006-07-03 10:27:54 51°16.24 2°54.232 57.8 0.9 232 10.6
2006-07-03 10:28:55 51°16.231 2°54.209 60.5 1.1 236 10.7
2006-07-03 10:29:55 51°16.222 2°54.186 59.8 0.6 243 10.6
2006-07-03 10:30:54 51°16.229 2°54.176 18.8 1.2 333 10.6
2006-07-03 10:31:54 51°16.251 2°54.153 8.2 1.6 320 10.6
2006-07-03 10:32:54 51°16.269 2°54.125 8.7 1.5 312 10.6
2006-07-03 10:33:55 51°16.284 2°54.095 8.7 1.4 308 10.7
2006-07-03 10:34:55 51°16.298 2°54.065 8.1 1.4 303 10.8
2006-07-03 10:35:55 51°16.31 2°54.035 8.3 1.4 303 10.8
2006-07-03 10:36:54 51°16.322 2°54.005 9.3 1.3 302 10.8
2006-07-03 10:37:55 51°16.333 2°53.975 9.9 1.3 302 10.8
2006-07-03 10:38:54 51°16.344 2°53.945 9.6 1.3 300 10.8
2006-07-03 10:39:55 51°16.354 2°53.913 8.4 1.3 295 10.8
2006-07-03 10:40:53 51°16.362 2°53.882 7.2 1.3 292 10.9
2006-07-03 10:41:55 51°16.369 2°53.849 8.5 1.3 287 10.9
2006-07-03 10:42:55 51°16.374 2°53.817 10.9 1.2 280 11
2006-07-03 10:43:55 51°16.366 2°53.781 3.6 1.6 244 10.9
2006-07-03 10:44:55 51°16.354 2°53.744 343.9 1.6 243 11
2006-07-03 10:45:55 51°16.346 2°53.702 323.8 2 271 11
2006-07-03 10:46:55 51°16.368 2°53.617 318.5 5.7 302 11
2006-07-03 10:47:55 51°16.437 2°53.455 317 6.9 304 11.1
2006-07-03 10:48:56 51°16.443 2°53.397 333.1 1.6 214 11.2
2006-07-03 10:49:55 51°16.423 2°53.372 323 1.5 221 11.2
2006-07-03 10:50:54 51°16.412 2°53.336 314.7 2.2 271 11.2
2006-07-03 10:51:55 51°16.426 2°53.258 318.6 3.6 294 11.2
2006-07-03 10:52:53 51°16.458 2°53.165 321.5 4.5 300 11.2
2006-07-03 10:53:55 51°16.502 2°53.059 328.3 4.7 307 11.1
2006-07-03 10:54:55 51°16.552 2°52.959 331.3 4.8 309 11
2006-07-03 10:55:55 51°16.603 2°52.861 331.7 4.8 311 10.8
2006-07-03 10:56:55 51°16.654 2°52.765 331.6 4.8 310 10.4
2006-07-03 10:57:55 51°16.71 2°52.687 346.9 4.2 328 9.9
2006-07-03 10:58:55 51°16.77 2°52.645 359 3.8 340 9.2
2006-07-03 10:59:54 51°16.828 2°52.614 0.9 3.8 343 9.1
2006-07-03 11:00:55 51°16.889 2°52.583 0.2 3.8 341 9.2
2006-07-03 11:01:55 51°16.949 2°52.55 359.6 3.8 341 9.4
2006-07-03 11:02:55 51°17.008 2°52.518 0.7 3.7 341 9
2006-07-03 11:03:54 51°17.066 2°52.488 0.9 3.7 342 9.2
2006-07-03 11:04:56 51°17.127 2°52.456 0.6 3.7 342 9.3
2006-07-03 11:05:55 51°17.185 2°52.425 356.9 3.8 338 9.5
2006-07-03 11:06:55 51°17.243 2°52.38 352.9 3.9 333 9.6
2006-07-03 11:07:55 51°17.302 2°52.333 353.6 4 334 9.8
2006-07-03 11:08:55 51°17.361 2°52.287 355 3.9 334 9.8
2006-07-03 11:09:55 51°17.418 2°52.242 355.3 3.9 334 9.8
2006-07-03 11:10:55 51°17.476 2°52.198 355.6 3.8 335 9.9
2006-07-03 11:11:55 51°17.534 2°52.153 355.1 3.9 334 9.9
2006-07-03 11:12:54 51°17.59 2°52.107 354.7 3.9 333 9.9
2006-07-03 11:13:55 51°17.648 2°52.059 355 3.8 332 9.9
2006-07-03 11:14:55 51°17.705 2°52.011 355.1 3.8 333 9.6
2006-07-03 11:15:55 51°17.762 2°51.965 355.6 3.8 334 9.8
2006-07-03 11:16:55 51°17.819 2°51.918 354.6 3.9 331 9.7
2006-07-03 11:17:55 51°17.876 2°51.87 355.2 3.9 333 9.7
2006-07-03 11:18:55 51°17.934 2°51.824 355.9 3.9 333 9.8
2006-07-03 11:19:54 51°17.991 2°51.777 356.2 3.9 334 9.9
2006-07-03 11:20:55 51°18.05 2°51.732 356.9 3.9 334 10.1
2006-07-03 11:21:54 51°18.107 2°51.683 352 4 330 10.4
2006-07-03 11:22:55 51°18.165 2°51.623 347.5 4.2 325 10.8
2006-07-03 11:23:55 51°18.221 2°51.552 342.9 4.4 320 11.1
2006-07-03 11:24:55 51°18.276 2°51.477 342.8 4.4 320 11.5
2006-07-03 11:25:54 51°18.332 2°51.404 343.7 4.4 321 11.9
2006-07-03 11:26:54 51°18.388 2°51.33 343.3 4.4 321 12.4
2006-07-03 11:27:54 51°18.444 2°51.254 341.6 4.5 318 12.7
2006-07-03 11:28:55 51°18.498 2°51.163 332 4.8 310 13.1
2006-07-03 11:29:54 51°18.543 2°51.073 336.5 3.8 307 13.2
2006-07-03 11:30:55 51°18.57 2°51.007 344.1 2.3 290 13.4
2006-07-03 11:31:55 51°18.565 2°50.96 341.4 1.8 257 13.4
2006-07-03 11:32:55 51°18.557 2°50.912 332 1.9 253 13.4
2006-07-03 11:33:54 51°18.547 2°50.864 326.6 1.9 251 13.5
2006-07-03 11:34:55 51°18.537 2°50.814 325.2 1.9 251 13.5
2006-07-03 11:35:54 51°18.527 2°50.766 326.3 1.9 251 13.5
2006-07-03 11:36:56 51°18.517 2°50.716 328.6 1.9 252 13.6
2006-07-03 11:37:54 51°18.507 2°50.669 330.2 1.9 251 13.6
2006-07-03 11:38:55 51°18.497 2°50.621 330.9 1.9 251 13.6
2006-07-03 11:39:54 51°18.487 2°50.574 331.6 1.9 251 13.6
2006-07-03 11:40:55 51°18.475 2°50.525 330.9 1.9 251 13.5
2006-07-03 11:41:55 51°18.464 2°50.476 329.8 2 250 13.6
2006-07-03 11:42:55 51°18.452 2°50.427 327.5 2 248 13.6
2006-07-03 11:43:54 51°18.441 2°50.378 325 2 249 13.6
2006-07-03 11:44:55 51°18.428 2°50.328 324.6 2 249 13.7
2006-07-03 11:45:55 51°18.416 2°50.279 324.4 2 250 13.6
2006-07-03 11:46:55 51°18.404 2°50.229 323.7 2 249 13.6
2006-07-03 11:47:55 51°18.394 2°50.177 329.5 2.1 267 13.6
2006-07-03 11:48:55 51°18.401 2°50.127 4.3 1.7 297 13.6
2006-07-03 11:49:55 51°18.415 2°50.104 37.8 0.8 330 13.6
2006-07-03 11:50:55 51°18.424 2°50.132 75.9 2.9 78 13.6
2006-07-03 11:51:56 51°18.434 2°50.215 74.7 3 79 13.7
2006-07-03 11:52:56 51°18.443 2°50.29 73.8 2.9 79 13.6
2006-07-03 11:53:55 51°18.45 2°50.363 76.3 2.8 84 13.7
2006-07-03 11:54:55 51°18.452 2°50.438 80.5 2.9 90 13.6
2006-07-03 11:55:55 51°18.451 2°50.514 81.4 2.8 92 13.6
2006-07-03 11:56:54 51°18.451 2°50.586 78.8 2.7 89 13.6
2006-07-03 11:57:55 51°18.45 2°50.646 78.1 1.9 93 13.5
2006-07-03 11:58:55 51°18.448 2°50.693 78.3 1.6 97 13.5
2006-07-03 11:59:54 51°18.443 2°50.733 78.8 1.5 100 13.4
2006-07-03 12:00:54 51°18.438 2°50.772 78.7 1.5 101 13.3
2006-07-03 12:01:55 51°18.432 2°50.809 78.3 1.4 101 13.3
2006-07-03 12:02:55 51°18.432 2°50.841 65.7 1.1 82 13.2
2006-07-03 12:03:55 51°18.439 2°50.867 56.8 1 56 13.3
2006-07-03 12:04:54 51°18.452 2°50.886 49 1.1 34 13.2
2006-07-03 12:05:56 51°18.469 2°50.903 46.2 1.2 28 13.2
2006-07-03 12:06:55 51°18.486 2°50.919 48.3 1.3 30 13.3
2006-07-03 12:07:55 51°18.503 2°50.938 51.1 1.3 37 13.4
2006-07-03 12:08:55 51°18.519 2°50.96 51.4 1.3 39 13.4
2006-07-03 12:09:55 51°18.537 2°50.987 57.3 2.1 56 13.4
2006-07-03 12:10:55 51°18.538 2°51.005 81.6 0.5 151 13.4
2006-07-03 12:11:55 51°18.523 2°51.006 97.6 1.1 189 13.4
2006-07-03 12:12:55 51°18.503 2°50.997 103.2 1.4 202 13.3
2006-07-03 12:13:54 51°18.483 2°50.98 103.9 1.4 212 13.3
2006-07-03 12:14:55 51°18.463 2°50.957 103.7 1.4 220 13.3
2006-07-03 12:15:55 51°18.443 2°50.931 102.2 1.3 215 13.2
2006-07-03 12:16:54 51°18.425 2°50.919 79.8 0.9 189 13.2
2006-07-03 12:17:55 51°18.416 2°50.925 69.8 0.5 131 13.2
2006-07-03 12:18:55 51°18.413 2°50.941 67.5 0.8 91 13.1
2006-07-03 12:19:54 51°18.414 2°50.966 68.3 1 85 13.1
2006-07-03 12:20:56 51°18.415 2°50.997 69.1 1.2 85 13.1
2006-07-03 12:21:55 51°18.415 2°51.027 69.8 1.1 89 13.1
2006-07-03 12:22:55 51°18.414 2°51.053 70.1 0.9 93 13.1
2006-07-03 12:23:55 51°18.412 2°51.078 69.7 0.9 98 13
2006-07-03 12:24:56 51°18.411 2°51.102 69.7 0.9 97 13
2006-07-03 12:25:54 51°18.409 2°51.124 69.7 0.9 100 13
2006-07-03 12:26:56 51°18.407 2°51.148 70.4 0.9 98 12.9
2006-07-03 12:27:55 51°18.405 2°51.171 70.1 0.9 94 12.9
2006-07-03 12:28:54 51°18.402 2°51.189 70.3 0.4 146 12.9
2006-07-03 12:29:55 51°18.392 2°51.185 77 0.8 201 12.9
2006-07-03 12:30:55 51°18.377 2°51.176 83.1 0.9 179 12.8
2006-07-03 12:31:55 51°18.332 2°51.245 139.2 6.2 154 12.4
2006-07-03 12:32:55 51°18.2 2°51.329 145.5 10.9 150 11.7
2006-07-03 12:33:55 51°18.027 2°51.505 141.3 12.7 145 10.4
2006-07-03 12:34:54 51°17.852 2°51.688 145.5 12.9 150 9.7
2006-07-03 12:35:55 51°17.67 2°51.877 140.2 12.9 145 9.7
2006-07-03 12:36:55 51°17.481 2°52.05 147.9 13.2 152 9.8
2006-07-03 12:37:55 51°17.299 2°52.232 144.5 13 149 9.8
2006-07-03 12:38:54 51°17.107 2°52.385 148.9 13 152 9.5
2006-07-03 12:39:55 51°16.912 2°52.551 144.8 13 148 9.4
2006-07-03 12:40:55 51°16.731 2°52.736 147.3 13 151 9.6
2006-07-03 12:41:55 51°16.54 2°52.905 146.6 13 151 11.1
2006-07-03 12:42:55 51°16.335 2°53.021 159.6 13.3 165 11.4
2006-07-03 12:43:55 51°16.128 2°53.132 155.4 13.1 162 11.3
2006-07-03 12:44:56 51°15.915 2°53.236 155.1 13.1 160 11
2006-07-03 12:45:55 51°15.708 2°53.334 158.9 13.1 164 10.4
2006-07-03 12:46:54 51°15.506 2°53.44 157.5 13.1 163 9.9
2006-07-03 12:47:55 51°15.298 2°53.551 151.8 12.7 156 9.4
2006-07-03 12:48:55 51°15.097 2°53.671 158.2 13 162 8.9
2006-07-03 12:49:55 51°14.922 2°53.846 135.6 12.3 141 8.6
2006-07-03 12:50:55 51°14.773 2°54.07 128.4 12.3 132 9.2
2006-07-03 12:51:56 51°14.641 2°54.324 122 12.2 125 9.6
2006-07-03 12:52:55 51°14.532 2°54.585 121.2 11.3 125 10.2
2006-07-03 12:53:55 51°14.435 2°54.825 119.9 10.6 124 10.2
2006-07-03 12:54:55 51°14.352 2°55.068 121.1 10.6 121 10
2006-07-03 12:55:55 51°14.253 2°55.277 136.1 8.7 136 10.1
2006-07-03 12:56:56 51°14.153 2°55.39 151.8 6.3 151 10
2006-07-03 12:57:56 51°14.071 2°55.453 156.9 5.1 155 10.1
2006-07-03 12:58:55 51°13.995 2°55.508 158.2 5.2 157 10.3
2006-07-03 12:59:54 51°13.915 2°55.564 156.1 5.5 155 10.5
2006-07-03 13:00:56 51°13.83 2°55.632 154.8 5.6 153 10.1
2006-07-03 13:01:54 51°13.758 2°55.706 142.6 5.1 140 9.4
2006-07-03 13:02:56 51°13.699 2°55.808 129.3 5.1 129 10.6
2006-07-03 13:03:55 51°13.656 2°55.911 122.6 4.4 121 8.7
2006-07-03 13:04:54 51°13.626 2°56.006 114.6 4.1 112 8.2
2006-07-03 13:05:56 51°13.611 2°56.077 116.1 1.5 115 6.2
2006-07-03 13:06:55 51°13.603 2°56.094 123.1 0.4 141 5.4
2006-07-03 13:07:55 51°13.603 2°56.098 119.9 0.2 43 5.9
2006-07-03 13:08:54 51°13.603 2°56.097 128.4 -999 340 6.2